sensor_id;sensor_type;location;lat;lon;timestamp;temperature;humidity
24158;DHT22;12316;50.904;4.200;2023-09-07T00:00:49;21.50;99.90
24158;DHT22;12316;50.904;4.200;2023-09-07T00:03:15;21.40;99.90
24158;DHT22;12316;50.904;4.200;2023-09-07T00:05:41;21.40;99.90
24158;DHT22;12316;50.904;4.200;2023-09-07T00:08:07;21.30;99.90
24158;DHT22;12316;50.904;4.200;2023-09-07T00:10:33;21.20;99.90
24158;DHT22;12316;50.904;4.200;2023-09-07T00:13:04;21.20;99.90
24158;DHT22;12316;50.904;4.200;2023-09-07T00:15:34;21.10;99.90
24158;DHT22;12316;50.904;4.200;2023-09-07T00:18:00;21.00;99.90
24158;DHT22;12316;50.904;4.200;2023-09-07T00:20:26;21.00;99.90
24158;DHT22;12316;50.904;4.200;2023-09-07T00:22:51;21.00;99.90
24158;DHT22;12316;50.904;4.200;2023-09-07T00:25:17;21.00;99.90
24158;DHT22;12316;50.904;4.200;2023-09-07T00:27:43;21.00;99.90
24158;DHT22;12316;50.904;4.200;2023-09-07T00:30:09;21.00;99.90
24158;DHT22;12316;50.904;4.200;2023-09-07T00:32:36;21.00;99.90
24158;DHT22;12316;50.904;4.200;2023-09-07T00:35:03;20.90;99.90
24158;DHT22;12316;50.904;4.200;2023-09-07T00:37:28;20.90;99.90
24158;DHT22;12316;50.904;4.200;2023-09-07T00:39:54;20.90;99.90
24158;DHT22;12316;50.904;4.200;2023-09-07T00:42:20;20.90;99.90
24158;DHT22;12316;50.904;4.200;2023-09-07T00:44:45;20.80;99.90
24158;DHT22;12316;50.904;4.200;2023-09-07T00:47:13;20.80;99.90
24158;DHT22;12316;50.904;4.200;2023-09-07T00:49:39;20.70;99.90
24158;DHT22;12316;50.904;4.200;2023-09-07T00:52:05;20.70;99.90
24158;DHT22;12316;50.904;4.200;2023-09-07T00:54:33;20.60;99.90
24158;DHT22;12316;50.904;4.200;2023-09-07T00:56:59;20.60;99.90
24158;DHT22;12316;50.904;4.200;2023-09-07T00:59:25;20.60;99.90
24158;DHT22;12316;50.904;4.200;2023-09-07T01:01:51;20.50;99.90
24158;DHT22;12316;50.904;4.200;2023-09-07T01:04:17;20.50;99.90
24158;DHT22;12316;50.904;4.200;2023-09-07T01:06:47;20.40;99.90
24158;DHT22;12316;50.904;4.200;2023-09-07T01:09:19;20.40;99.90
24158;DHT22;12316;50.904;4.200;2023-09-07T01:11:44;20.40;99.90
24158;DHT22;12316;50.904;4.200;2023-09-07T01:14:10;20.30;99.90
24158;DHT22;12316;50.904;4.200;2023-09-07T01:16:37;20.20;99.90
24158;DHT22;12316;50.904;4.200;2023-09-07T01:19:05;20.20;99.90
24158;DHT22;12316;50.904;4.200;2023-09-07T01:21:38;20.10;99.90
24158;DHT22;12316;50.904;4.200;2023-09-07T01:24:08;20.10;99.90
24158;DHT22;12316;50.904;4.200;2023-09-07T01:26:35;20.10;99.90
24158;DHT22;12316;50.904;4.200;2023-09-07T01:29:04;20.00;99.90
24158;DHT22;12316;50.904;4.200;2023-09-07T01:31:30;20.00;99.90
24158;DHT22;12316;50.904;4.200;2023-09-07T01:33:56;20.10;99.90
24158;DHT22;12316;50.904;4.200;2023-09-07T01:36:21;20.10;99.90
24158;DHT22;12316;50.904;4.200;2023-09-07T01:38:47;20.00;99.90
24158;DHT22;12316;50.904;4.200;2023-09-07T01:41:13;20.00;99.90
24158;DHT22;12316;50.904;4.200;2023-09-07T01:43:39;19.90;99.90
24158;DHT22;12316;50.904;4.200;2023-09-07T01:46:05;19.80;99.90
24158;DHT22;12316;50.904;4.200;2023-09-07T01:48:30;19.80;99.90
24158;DHT22;12316;50.904;4.200;2023-09-07T01:50:56;19.80;99.90
24158;DHT22;12316;50.904;4.200;2023-09-07T01:53:21;19.80;99.90
24158;DHT22;12316;50.904;4.200;2023-09-07T01:55:47;19.80;99.90
24158;DHT22;12316;50.904;4.200;2023-09-07T01:58:13;19.80;99.90
24158;DHT22;12316;50.904;4.200;2023-09-07T02:00:39;19.80;99.90
24158;DHT22;12316;50.904;4.200;2023-09-07T02:03:06;19.70;99.90
24158;DHT22;12316;50.904;4.200;2023-09-07T02:05:31;19.60;99.90
24158;DHT22;12316;50.904;4.200;2023-09-07T02:07:58;19.60;99.90
24158;DHT22;12316;50.904;4.200;2023-09-07T02:10:24;19.50;99.90
24158;DHT22;12316;50.904;4.200;2023-09-07T02:12:49;19.50;99.90
24158;DHT22;12316;50.904;4.200;2023-09-07T02:15:15;19.50;99.90
24158;DHT22;12316;50.904;4.200;2023-09-07T02:17:41;19.40;99.90
24158;DHT22;12316;50.904;4.200;2023-09-07T02:20:11;19.40;99.90
24158;DHT22;12316;50.904;4.200;2023-09-07T02:22:37;19.40;99.90
24158;DHT22;12316;50.904;4.200;2023-09-07T02:25:03;19.50;99.90
24158;DHT22;12316;50.904;4.200;2023-09-07T02:27:31;19.60;99.90
24158;DHT22;12316;50.904;4.200;2023-09-07T02:29:58;19.60;99.90
24158;DHT22;12316;50.904;4.200;2023-09-07T02:32:24;19.70;99.90
24158;DHT22;12316;50.904;4.200;2023-09-07T02:34:49;19.70;99.90
24158;DHT22;12316;50.904;4.200;2023-09-07T02:37:15;19.60;99.90
24158;DHT22;12316;50.904;4.200;2023-09-07T02:39:42;19.50;99.90
24158;DHT22;12316;50.904;4.200;2023-09-07T02:42:07;19.40;99.90
24158;DHT22;12316;50.904;4.200;2023-09-07T02:44:33;19.30;99.90
24158;DHT22;12316;50.904;4.200;2023-09-07T02:46:59;19.40;99.90
24158;DHT22;12316;50.904;4.200;2023-09-07T02:49:24;19.50;99.90
24158;DHT22;12316;50.904;4.200;2023-09-07T02:51:50;19.40;99.90
24158;DHT22;12316;50.904;4.200;2023-09-07T02:54:15;19.40;99.90
24158;DHT22;12316;50.904;4.200;2023-09-07T02:56:41;19.40;99.90
24158;DHT22;12316;50.904;4.200;2023-09-07T02:59:07;19.30;99.90
24158;DHT22;12316;50.904;4.200;2023-09-07T03:01:32;19.20;99.90
24158;DHT22;12316;50.904;4.200;2023-09-07T03:03:58;19.20;99.90
24158;DHT22;12316;50.904;4.200;2023-09-07T03:06:25;19.20;99.90
24158;DHT22;12316;50.904;4.200;2023-09-07T03:08:50;19.20;99.90
24158;DHT22;12316;50.904;4.200;2023-09-07T03:11:17;19.30;99.90
24158;DHT22;12316;50.904;4.200;2023-09-07T03:13:43;19.20;99.90
24158;DHT22;12316;50.904;4.200;2023-09-07T03:16:09;19.20;99.90
24158;DHT22;12316;50.904;4.200;2023-09-07T03:18:35;19.20;99.90
24158;DHT22;12316;50.904;4.200;2023-09-07T03:21:02;19.20;99.90
24158;DHT22;12316;50.904;4.200;2023-09-07T03:23:32;19.20;99.90
24158;DHT22;12316;50.904;4.200;2023-09-07T03:25:58;19.20;99.90
24158;DHT22;12316;50.904;4.200;2023-09-07T03:28:24;19.30;99.90
24158;DHT22;12316;50.904;4.200;2023-09-07T03:30:54;19.30;99.90
24158;DHT22;12316;50.904;4.200;2023-09-07T03:33:19;19.30;99.90
24158;DHT22;12316;50.904;4.200;2023-09-07T03:35:45;19.20;99.90
24158;DHT22;12316;50.904;4.200;2023-09-07T03:38:11;19.20;99.90
24158;DHT22;12316;50.904;4.200;2023-09-07T03:40:37;19.30;99.90
24158;DHT22;12316;50.904;4.200;2023-09-07T03:43:02;19.30;99.90
24158;DHT22;12316;50.904;4.200;2023-09-07T03:45:28;19.30;99.90
24158;DHT22;12316;50.904;4.200;2023-09-07T03:47:54;19.20;99.90
24158;DHT22;12316;50.904;4.200;2023-09-07T03:50:20;19.30;99.90
24158;DHT22;12316;50.904;4.200;2023-09-07T03:52:45;19.20;99.90
24158;DHT22;12316;50.904;4.200;2023-09-07T03:55:11;19.20;99.90
24158;DHT22;12316;50.904;4.200;2023-09-07T03:57:37;19.20;99.90
24158;DHT22;12316;50.904;4.200;2023-09-07T04:00:03;19.10;99.90
24158;DHT22;12316;50.904;4.200;2023-09-07T04:02:33;19.10;99.90
24158;DHT22;12316;50.904;4.200;2023-09-07T04:04:58;19.10;99.90
24158;DHT22;12316;50.904;4.200;2023-09-07T04:07:24;19.00;99.90
24158;DHT22;12316;50.904;4.200;2023-09-07T04:09:50;19.00;99.90
24158;DHT22;12316;50.904;4.200;2023-09-07T04:12:16;19.00;99.90
24158;DHT22;12316;50.904;4.200;2023-09-07T04:14:41;19.00;99.90
24158;DHT22;12316;50.904;4.200;2023-09-07T04:17:07;19.00;99.90
24158;DHT22;12316;50.904;4.200;2023-09-07T04:19:33;18.90;99.90
24158;DHT22;12316;50.904;4.200;2023-09-07T04:21:59;18.90;99.90
24158;DHT22;12316;50.904;4.200;2023-09-07T04:24:25;18.90;99.90
24158;DHT22;12316;50.904;4.200;2023-09-07T04:26:53;18.80;99.90
24158;DHT22;12316;50.904;4.200;2023-09-07T04:29:18;18.90;99.90
24158;DHT22;12316;50.904;4.200;2023-09-07T04:31:44;18.80;99.90
24158;DHT22;12316;50.904;4.200;2023-09-07T04:34:09;18.80;99.90
24158;DHT22;12316;50.904;4.200;2023-09-07T04:36:35;18.80;99.90
24158;DHT22;12316;50.904;4.200;2023-09-07T04:39:01;18.80;99.90
24158;DHT22;12316;50.904;4.200;2023-09-07T04:41:29;18.80;99.90
24158;DHT22;12316;50.904;4.200;2023-09-07T04:43:54;18.80;99.90
24158;DHT22;12316;50.904;4.200;2023-09-07T04:46:22;18.80;99.90
24158;DHT22;12316;50.904;4.200;2023-09-07T04:48:48;18.80;99.90
24158;DHT22;12316;50.904;4.200;2023-09-07T04:51:14;18.80;99.90
24158;DHT22;12316;50.904;4.200;2023-09-07T04:53:39;18.80;99.90
24158;DHT22;12316;50.904;4.200;2023-09-07T04:56:06;18.80;99.90
24158;DHT22;12316;50.904;4.200;2023-09-07T04:58:33;18.80;99.90
24158;DHT22;12316;50.904;4.200;2023-09-07T05:01:06;18.80;99.90
24158;DHT22;12316;50.904;4.200;2023-09-07T05:03:34;18.80;99.90
24158;DHT22;12316;50.904;4.200;2023-09-07T05:06:02;18.80;99.90
24158;DHT22;12316;50.904;4.200;2023-09-07T05:08:30;18.80;99.90
24158;DHT22;12316;50.904;4.200;2023-09-07T05:10:58;18.80;99.90
24158;DHT22;12316;50.904;4.200;2023-09-07T05:13:25;18.80;99.90
24158;DHT22;12316;50.904;4.200;2023-09-07T05:15:51;18.80;99.90
24158;DHT22;12316;50.904;4.200;2023-09-07T05:18:18;18.80;99.90
24158;DHT22;12316;50.904;4.200;2023-09-07T05:20:44;18.80;99.90
24158;DHT22;12316;50.904;4.200;2023-09-07T05:23:13;18.80;99.90
24158;DHT22;12316;50.904;4.200;2023-09-07T05:25:44;18.90;99.90
24158;DHT22;12316;50.904;4.200;2023-09-07T05:28:13;18.90;99.90
24158;DHT22;12316;50.904;4.200;2023-09-07T05:30:39;19.00;99.90
24158;DHT22;12316;50.904;4.200;2023-09-07T05:33:05;19.00;99.90
24158;DHT22;12316;50.904;4.200;2023-09-07T05:35:31;19.20;99.90
24158;DHT22;12316;50.904;4.200;2023-09-07T05:37:58;19.30;99.90
24158;DHT22;12316;50.904;4.200;2023-09-07T05:40:25;19.50;99.90
24158;DHT22;12316;50.904;4.200;2023-09-07T05:42:50;19.70;99.90
24158;DHT22;12316;50.904;4.200;2023-09-07T05:45:16;19.80;99.90
24158;DHT22;12316;50.904;4.200;2023-09-07T05:47:41;19.90;99.90
24158;DHT22;12316;50.904;4.200;2023-09-07T05:50:08;20.00;99.90
24158;DHT22;12316;50.904;4.200;2023-09-07T05:52:34;20.00;99.90
24158;DHT22;12316;50.904;4.200;2023-09-07T05:55:00;20.10;99.90
24158;DHT22;12316;50.904;4.200;2023-09-07T05:57:26;20.20;99.90
24158;DHT22;12316;50.904;4.200;2023-09-07T05:59:52;20.30;99.90
24158;DHT22;12316;50.904;4.200;2023-09-07T06:02:17;20.50;99.90
24158;DHT22;12316;50.904;4.200;2023-09-07T06:04:43;20.70;99.90
24158;DHT22;12316;50.904;4.200;2023-09-07T06:07:09;20.90;99.90
24158;DHT22;12316;50.904;4.200;2023-09-07T06:09:34;21.20;99.90
24158;DHT22;12316;50.904;4.200;2023-09-07T06:12:02;21.40;99.90
24158;DHT22;12316;50.904;4.200;2023-09-07T06:14:28;21.70;99.90
24158;DHT22;12316;50.904;4.200;2023-09-07T06:16:55;22.00;99.90
24158;DHT22;12316;50.904;4.200;2023-09-07T06:19:20;22.20;99.90
24158;DHT22;12316;50.904;4.200;2023-09-07T06:21:46;22.40;99.90
24158;DHT22;12316;50.904;4.200;2023-09-07T06:24:12;22.50;99.90
24158;DHT22;12316;50.904;4.200;2023-09-07T06:26:38;22.60;99.90
24158;DHT22;12316;50.904;4.200;2023-09-07T06:29:03;22.60;99.90
24158;DHT22;12316;50.904;4.200;2023-09-07T06:31:30;22.70;99.90
24158;DHT22;12316;50.904;4.200;2023-09-07T06:33:56;22.80;99.90
24158;DHT22;12316;50.904;4.200;2023-09-07T06:36:21;22.80;99.90
24158;DHT22;12316;50.904;4.200;2023-09-07T06:38:48;22.80;99.90
24158;DHT22;12316;50.904;4.200;2023-09-07T06:41:14;22.80;99.90
24158;DHT22;12316;50.904;4.200;2023-09-07T06:43:40;22.80;99.90
24158;DHT22;12316;50.904;4.200;2023-09-07T06:46:07;22.90;99.90
24158;DHT22;12316;50.904;4.200;2023-09-07T06:48:33;22.80;99.90
24158;DHT22;12316;50.904;4.200;2023-09-07T06:51:03;22.90;99.90
24158;DHT22;12316;50.904;4.200;2023-09-07T06:53:29;23.00;99.90
24158;DHT22;12316;50.904;4.200;2023-09-07T06:56:03;23.00;99.90
24158;DHT22;12316;50.904;4.200;2023-09-07T06:58:28;22.80;99.90
24158;DHT22;12316;50.904;4.200;2023-09-07T07:01:01;23.00;99.90
24158;DHT22;12316;50.904;4.200;2023-09-07T07:03:28;23.10;99.90
24158;DHT22;12316;50.904;4.200;2023-09-07T07:05:55;23.10;99.90
24158;DHT22;12316;50.904;4.200;2023-09-07T07:08:21;23.20;99.90
24158;DHT22;12316;50.904;4.200;2023-09-07T07:10:47;23.20;99.90
24158;DHT22;12316;50.904;4.200;2023-09-07T07:13:12;23.10;99.90
24158;DHT22;12316;50.904;4.200;2023-09-07T07:15:38;23.20;99.90
24158;DHT22;12316;50.904;4.200;2023-09-07T07:18:04;23.30;99.90
24158;DHT22;12316;50.904;4.200;2023-09-07T07:20:36;23.30;99.90
24158;DHT22;12316;50.904;4.200;2023-09-07T07:23:04;23.30;99.90
24158;DHT22;12316;50.904;4.200;2023-09-07T07:25:29;23.20;99.90
24158;DHT22;12316;50.904;4.200;2023-09-07T07:27:59;23.20;99.90
24158;DHT22;12316;50.904;4.200;2023-09-07T07:30:27;23.30;99.90
24158;DHT22;12316;50.904;4.200;2023-09-07T07:32:56;23.40;99.90
24158;DHT22;12316;50.904;4.200;2023-09-07T07:35:22;23.50;99.90
24158;DHT22;12316;50.904;4.200;2023-09-07T07:37:49;23.50;99.90
24158;DHT22;12316;50.904;4.200;2023-09-07T07:40:15;23.60;99.90
24158;DHT22;12316;50.904;4.200;2023-09-07T07:42:41;23.70;99.90
24158;DHT22;12316;50.904;4.200;2023-09-07T07:45:07;23.80;99.90
24158;DHT22;12316;50.904;4.200;2023-09-07T07:47:33;23.80;99.90
24158;DHT22;12316;50.904;4.200;2023-09-07T07:49:59;23.80;99.90
24158;DHT22;12316;50.904;4.200;2023-09-07T07:52:24;23.90;99.90
24158;DHT22;12316;50.904;4.200;2023-09-07T07:54:50;24.00;99.90
24158;DHT22;12316;50.904;4.200;2023-09-07T07:57:16;24.00;99.90
24158;DHT22;12316;50.904;4.200;2023-09-07T07:59:41;24.10;99.90
24158;DHT22;12316;50.904;4.200;2023-09-07T08:02:07;24.20;99.90
24158;DHT22;12316;50.904;4.200;2023-09-07T08:04:33;24.20;99.90
24158;DHT22;12316;50.904;4.200;2023-09-07T08:07:00;24.30;99.90
24158;DHT22;12316;50.904;4.200;2023-09-07T08:09:30;24.40;99.90
24158;DHT22;12316;50.904;4.200;2023-09-07T08:11:56;24.50;99.90
24158;DHT22;12316;50.904;4.200;2023-09-07T08:14:24;24.60;99.90
24158;DHT22;12316;50.904;4.200;2023-09-07T08:16:52;24.70;99.90
24158;DHT22;12316;50.904;4.200;2023-09-07T08:19:18;24.80;99.90
24158;DHT22;12316;50.904;4.200;2023-09-07T08:21:44;24.90;99.90
24158;DHT22;12316;50.904;4.200;2023-09-07T08:24:11;24.80;99.90
24158;DHT22;12316;50.904;4.200;2023-09-07T08:26:37;24.70;99.90
24158;DHT22;12316;50.904;4.200;2023-09-07T08:29:04;24.80;99.90
24158;DHT22;12316;50.904;4.200;2023-09-07T08:31:35;24.90;99.90
24158;DHT22;12316;50.904;4.200;2023-09-07T08:34:05;24.80;99.90
24158;DHT22;12316;50.904;4.200;2023-09-07T08:36:32;24.80;99.90
24158;DHT22;12316;50.904;4.200;2023-09-07T08:39:05;24.80;99.90
24158;DHT22;12316;50.904;4.200;2023-09-07T08:41:40;24.80;99.90
24158;DHT22;12316;50.904;4.200;2023-09-07T08:44:18;24.80;99.90
24158;DHT22;12316;50.904;4.200;2023-09-07T08:46:50;24.70;99.90
24158;DHT22;12316;50.904;4.200;2023-09-07T08:49:16;24.80;99.90
24158;DHT22;12316;50.904;4.200;2023-09-07T08:51:45;24.80;99.90
24158;DHT22;12316;50.904;4.200;2023-09-07T08:54:12;24.80;99.90
24158;DHT22;12316;50.904;4.200;2023-09-07T08:56:38;24.90;99.90
24158;DHT22;12316;50.904;4.200;2023-09-07T08:59:04;25.00;99.90
24158;DHT22;12316;50.904;4.200;2023-09-07T09:01:30;25.00;99.90
24158;DHT22;12316;50.904;4.200;2023-09-07T09:03:57;25.20;99.90
24158;DHT22;12316;50.904;4.200;2023-09-07T09:06:25;25.30;99.90
24158;DHT22;12316;50.904;4.200;2023-09-07T09:08:53;25.40;99.90
24158;DHT22;12316;50.904;4.200;2023-09-07T09:11:20;25.40;99.90
24158;DHT22;12316;50.904;4.200;2023-09-07T09:13:46;25.60;99.90
24158;DHT22;12316;50.904;4.200;2023-09-07T09:16:13;25.80;99.90
24158;DHT22;12316;50.904;4.200;2023-09-07T09:18:50;25.90;99.90
24158;DHT22;12316;50.904;4.200;2023-09-07T09:21:27;26.10;99.90
24158;DHT22;12316;50.904;4.200;2023-09-07T09:23:55;26.10;99.90
24158;DHT22;12316;50.904;4.200;2023-09-07T09:26:21;26.10;99.90
24158;DHT22;12316;50.904;4.200;2023-09-07T09:28:48;26.10;99.90
24158;DHT22;12316;50.904;4.200;2023-09-07T09:31:17;26.00;99.90
24158;DHT22;12316;50.904;4.200;2023-09-07T09:33:48;26.10;99.90
24158;DHT22;12316;50.904;4.200;2023-09-07T09:36:14;26.30;99.90
24158;DHT22;12316;50.904;4.200;2023-09-07T09:38:40;26.50;99.90
24158;DHT22;12316;50.904;4.200;2023-09-07T09:41:06;26.70;99.90
24158;DHT22;12316;50.904;4.200;2023-09-07T09:43:34;26.70;99.90
24158;DHT22;12316;50.904;4.200;2023-09-07T09:46:00;26.70;99.90
24158;DHT22;12316;50.904;4.200;2023-09-07T09:48:27;26.90;99.90
24158;DHT22;12316;50.904;4.200;2023-09-07T09:50:53;27.00;99.90
24158;DHT22;12316;50.904;4.200;2023-09-07T09:53:19;27.10;99.90
24158;DHT22;12316;50.904;4.200;2023-09-07T09:55:49;27.10;99.90
24158;DHT22;12316;50.904;4.200;2023-09-07T09:58:16;27.20;99.90
24158;DHT22;12316;50.904;4.200;2023-09-07T10:00:47;27.10;99.90
24158;DHT22;12316;50.904;4.200;2023-09-07T10:06:28;27.20;99.90
24158;DHT22;12316;50.904;4.200;2023-09-07T10:08:59;27.20;99.90
24158;DHT22;12316;50.904;4.200;2023-09-07T10:11:35;27.10;99.90
24158;DHT22;12316;50.904;4.200;2023-09-07T10:14:03;27.10;99.90
24158;DHT22;12316;50.904;4.200;2023-09-07T10:16:50;27.10;99.90
24158;DHT22;12316;50.904;4.200;2023-09-07T10:19:23;27.10;99.90
24158;DHT22;12316;50.904;4.200;2023-09-07T10:21:49;27.10;99.90
24158;DHT22;12316;50.904;4.200;2023-09-07T10:24:37;27.10;99.90
24158;DHT22;12316;50.904;4.200;2023-09-07T10:27:06;27.30;99.90
24158;DHT22;12316;50.904;4.200;2023-09-07T10:29:51;27.30;99.90
24158;DHT22;12316;50.904;4.200;2023-09-07T10:32:20;27.30;99.90
24158;DHT22;12316;50.904;4.200;2023-09-07T10:34:46;27.30;99.90
24158;DHT22;12316;50.904;4.200;2023-09-07T10:37:13;27.40;99.90
24158;DHT22;12316;50.904;4.200;2023-09-07T10:39:41;27.40;99.90
24158;DHT22;12316;50.904;4.200;2023-09-07T10:42:25;27.60;99.90
24158;DHT22;12316;50.904;4.200;2023-09-07T10:44:51;27.70;99.90
24158;DHT22;12316;50.904;4.200;2023-09-07T10:47:17;27.80;99.90
24158;DHT22;12316;50.904;4.200;2023-09-07T10:49:43;27.80;99.90
24158;DHT22;12316;50.904;4.200;2023-09-07T10:52:08;27.90;99.90
24158;DHT22;12316;50.904;4.200;2023-09-07T10:54:34;27.70;99.90
24158;DHT22;12316;50.904;4.200;2023-09-07T10:57:08;27.80;99.90
24158;DHT22;12316;50.904;4.200;2023-09-07T10:59:34;27.70;99.90
24158;DHT22;12316;50.904;4.200;2023-09-07T11:02:04;27.80;99.90
24158;DHT22;12316;50.904;4.200;2023-09-07T11:04:30;27.80;99.90
24158;DHT22;12316;50.904;4.200;2023-09-07T11:06:55;27.80;99.90
24158;DHT22;12316;50.904;4.200;2023-09-07T11:09:21;27.80;99.90
24158;DHT22;12316;50.904;4.200;2023-09-07T11:11:47;27.70;99.90
24158;DHT22;12316;50.904;4.200;2023-09-07T11:14:12;27.70;99.90
24158;DHT22;12316;50.904;4.200;2023-09-07T11:16:40;27.70;99.90
24158;DHT22;12316;50.904;4.200;2023-09-07T11:19:07;27.60;99.90
24158;DHT22;12316;50.904;4.200;2023-09-07T11:21:34;27.70;99.90
24158;DHT22;12316;50.904;4.200;2023-09-07T11:24:01;27.70;99.90
24158;DHT22;12316;50.904;4.200;2023-09-07T11:26:40;27.80;99.90
24158;DHT22;12316;50.904;4.200;2023-09-07T11:29:05;27.80;99.90
24158;DHT22;12316;50.904;4.200;2023-09-07T11:31:31;27.90;99.90
24158;DHT22;12316;50.904;4.200;2023-09-07T11:33:57;28.10;99.90
24158;DHT22;12316;50.904;4.200;2023-09-07T11:36:23;28.20;99.90
24158;DHT22;12316;50.904;4.200;2023-09-07T11:38:50;28.20;99.90
24158;DHT22;12316;50.904;4.200;2023-09-07T11:41:15;28.10;99.90
24158;DHT22;12316;50.904;4.200;2023-09-07T11:43:41;28.20;99.90
24158;DHT22;12316;50.904;4.200;2023-09-07T11:46:07;28.30;99.90
24158;DHT22;12316;50.904;4.200;2023-09-07T11:48:33;28.30;99.90
24158;DHT22;12316;50.904;4.200;2023-09-07T11:50:59;28.50;99.90
24158;DHT22;12316;50.904;4.200;2023-09-07T11:53:25;28.50;99.90
24158;DHT22;12316;50.904;4.200;2023-09-07T11:55:51;28.50;99.90
24158;DHT22;12316;50.904;4.200;2023-09-07T11:58:16;28.50;99.90
24158;DHT22;12316;50.904;4.200;2023-09-07T12:00:42;28.60;99.90
24158;DHT22;12316;50.904;4.200;2023-09-07T12:03:08;28.70;99.90
24158;DHT22;12316;50.904;4.200;2023-09-07T12:05:34;28.80;99.90
24158;DHT22;12316;50.904;4.200;2023-09-07T12:08:01;28.80;99.90
24158;DHT22;12316;50.904;4.200;2023-09-07T12:10:27;28.90;99.90
24158;DHT22;12316;50.904;4.200;2023-09-07T12:12:52;28.90;99.90
24158;DHT22;12316;50.904;4.200;2023-09-07T12:15:18;28.80;99.90
24158;DHT22;12316;50.904;4.200;2023-09-07T12:17:44;28.80;99.90
24158;DHT22;12316;50.904;4.200;2023-09-07T12:20:10;28.70;99.90
24158;DHT22;12316;50.904;4.200;2023-09-07T12:22:39;28.60;99.90
24158;DHT22;12316;50.904;4.200;2023-09-07T12:25:06;28.70;99.90
24158;DHT22;12316;50.904;4.200;2023-09-07T12:27:33;28.90;99.90
24158;DHT22;12316;50.904;4.200;2023-09-07T12:30:00;29.00;99.90
24158;DHT22;12316;50.904;4.200;2023-09-07T12:32:25;29.00;99.90
24158;DHT22;12316;50.904;4.200;2023-09-07T12:34:51;29.00;99.90
24158;DHT22;12316;50.904;4.200;2023-09-07T12:37:19;29.00;99.90
24158;DHT22;12316;50.904;4.200;2023-09-07T12:39:45;29.10;99.90
24158;DHT22;12316;50.904;4.200;2023-09-07T12:42:10;29.10;99.90
24158;DHT22;12316;50.904;4.200;2023-09-07T12:44:36;29.20;99.90
24158;DHT22;12316;50.904;4.200;2023-09-07T12:47:01;29.20;99.80
24158;DHT22;12316;50.904;4.200;2023-09-07T12:49:27;29.20;99.90
24158;DHT22;12316;50.904;4.200;2023-09-07T12:51:52;29.10;99.60
24158;DHT22;12316;50.904;4.200;2023-09-07T12:54:18;29.10;99.90
24158;DHT22;12316;50.904;4.200;2023-09-07T12:56:44;29.20;99.90
24158;DHT22;12316;50.904;4.200;2023-09-07T12:59:10;29.30;99.90
24158;DHT22;12316;50.904;4.200;2023-09-07T13:01:36;29.40;99.50
24158;DHT22;12316;50.904;4.200;2023-09-07T13:04:02;29.40;99.60
24158;DHT22;12316;50.904;4.200;2023-09-07T13:06:28;29.40;99.50
24158;DHT22;12316;50.904;4.200;2023-09-07T13:08:54;29.40;99.40
24158;DHT22;12316;50.904;4.200;2023-09-07T13:11:19;29.20;99.70
24158;DHT22;12316;50.904;4.200;2023-09-07T13:13:45;29.30;99.60
24158;DHT22;12316;50.904;4.200;2023-09-07T13:16:10;29.30;99.00
24158;DHT22;12316;50.904;4.200;2023-09-07T13:18:37;29.30;99.10
24158;DHT22;12316;50.904;4.200;2023-09-07T13:21:02;29.40;99.80
24158;DHT22;12316;50.904;4.200;2023-09-07T13:23:29;29.60;99.90
24158;DHT22;12316;50.904;4.200;2023-09-07T13:25:55;29.80;99.90
24158;DHT22;12316;50.904;4.200;2023-09-07T13:28:25;29.80;99.20
24158;DHT22;12316;50.904;4.200;2023-09-07T13:30:52;29.80;99.20
24158;DHT22;12316;50.904;4.200;2023-09-07T13:33:18;29.80;98.50
24158;DHT22;12316;50.904;4.200;2023-09-07T13:35:44;29.90;99.10
24158;DHT22;12316;50.904;4.200;2023-09-07T13:38:10;30.00;99.50
24158;DHT22;12316;50.904;4.200;2023-09-07T13:40:36;30.10;99.00
24158;DHT22;12316;50.904;4.200;2023-09-07T13:43:02;30.10;99.30
24158;DHT22;12316;50.904;4.200;2023-09-07T13:45:28;30.10;99.00
24158;DHT22;12316;50.904;4.200;2023-09-07T13:47:55;30.00;98.40
24158;DHT22;12316;50.904;4.200;2023-09-07T13:50:21;30.00;98.10
24158;DHT22;12316;50.904;4.200;2023-09-07T13:52:47;29.80;98.20
24158;DHT22;12316;50.904;4.200;2023-09-07T13:55:13;29.90;98.50
24158;DHT22;12316;50.904;4.200;2023-09-07T13:57:38;29.90;98.30
24158;DHT22;12316;50.904;4.200;2023-09-07T14:00:05;30.00;98.70
24158;DHT22;12316;50.904;4.200;2023-09-07T14:02:32;30.00;98.80
24158;DHT22;12316;50.904;4.200;2023-09-07T14:05:00;30.00;98.10
24158;DHT22;12316;50.904;4.200;2023-09-07T14:07:26;30.20;98.90
24158;DHT22;12316;50.904;4.200;2023-09-07T14:09:55;30.20;98.80
24158;DHT22;12316;50.904;4.200;2023-09-07T14:12:20;30.20;98.10
24158;DHT22;12316;50.904;4.200;2023-09-07T14:14:47;30.20;98.20
24158;DHT22;12316;50.904;4.200;2023-09-07T14:17:13;30.30;98.50
24158;DHT22;12316;50.904;4.200;2023-09-07T14:19:39;30.40;98.80
24158;DHT22;12316;50.904;4.200;2023-09-07T14:22:04;30.40;98.20
24158;DHT22;12316;50.904;4.200;2023-09-07T14:24:30;30.30;98.60
24158;DHT22;12316;50.904;4.200;2023-09-07T14:26:56;30.20;98.90
24158;DHT22;12316;50.904;4.200;2023-09-07T14:29:22;30.30;98.60
24158;DHT22;12316;50.904;4.200;2023-09-07T14:31:48;30.30;97.90
24158;DHT22;12316;50.904;4.200;2023-09-07T14:34:14;30.30;99.00
24158;DHT22;12316;50.904;4.200;2023-09-07T14:36:39;30.40;99.00
24158;DHT22;12316;50.904;4.200;2023-09-07T14:39:06;30.60;98.90
24158;DHT22;12316;50.904;4.200;2023-09-07T14:41:32;30.60;99.30
24158;DHT22;12316;50.904;4.200;2023-09-07T14:43:59;30.60;99.10
24158;DHT22;12316;50.904;4.200;2023-09-07T14:46:25;30.50;98.70
24158;DHT22;12316;50.904;4.200;2023-09-07T14:48:51;30.40;98.70
24158;DHT22;12316;50.904;4.200;2023-09-07T14:51:17;30.50;99.10
24158;DHT22;12316;50.904;4.200;2023-09-07T14:53:43;30.60;99.10
24158;DHT22;12316;50.904;4.200;2023-09-07T14:56:09;30.70;99.20
24158;DHT22;12316;50.904;4.200;2023-09-07T14:58:35;30.70;99.40
24158;DHT22;12316;50.904;4.200;2023-09-07T15:01:00;30.80;99.60
24158;DHT22;12316;50.904;4.200;2023-09-07T15:03:26;30.90;99.10
24158;DHT22;12316;50.904;4.200;2023-09-07T15:05:52;30.90;99.10
24158;DHT22;12316;50.904;4.200;2023-09-07T15:08:18;30.90;99.20
24158;DHT22;12316;50.904;4.200;2023-09-07T15:10:43;30.90;99.40
24158;DHT22;12316;50.904;4.200;2023-09-07T15:13:09;31.00;99.40
24158;DHT22;12316;50.904;4.200;2023-09-07T15:15:35;31.00;98.80
24158;DHT22;12316;50.904;4.200;2023-09-07T15:18:06;30.90;98.30
24158;DHT22;12316;50.904;4.200;2023-09-07T15:20:32;30.90;98.90
24158;DHT22;12316;50.904;4.200;2023-09-07T15:22:58;30.90;98.90
24158;DHT22;12316;50.904;4.200;2023-09-07T15:25:24;30.90;98.80
24158;DHT22;12316;50.904;4.200;2023-09-07T15:27:49;30.90;99.00
24158;DHT22;12316;50.904;4.200;2023-09-07T15:30:15;31.00;99.00